WetterOnline ( https://www.wetteronline.de )

Wetter aktuell Finsterwalde

Aktuelles Wetter: Kirchhain (100m)

6-stündlich | Neueste Meldungen
Ortszeit Temperatur Wetter
Fr, 23.02. 7:00 8.1° C bedeckt
Fr, 23.02. 1:00 11.7° C bedeckt
Do, 22.02. 19:00 10.4° C bedeckt
Do, 22.02. 13:00 11.2° C bedeckt
Do, 22.02. 7:00 7.7° C leichter Regen
Do, 22.02. 1:00 7.6° C bedeckt
Mi, 21.02. 19:00 6.6° C bedeckt
Mi, 21.02. 13:00 10.6° C bedeckt
Ortszeit Temperatur Wetter
Fr, 23.02. 7:00 8.1° C bedeckt
Fr, 23.02. 6:30 8.6° C bedeckt
Fr, 23.02. 6:20 8.6° C bedeckt
Fr, 23.02. 6:10 8.7° C bedeckt
Fr, 23.02. 6:00 9.2° C wolkig
Fr, 23.02. 5:50 9.2° C wolkig
Fr, 23.02. 5:30 10.0° C wolkig
Fr, 23.02. 5:00 10.5° C bewölkt
Fr, 23.02. 4:30 10.7° C bewölkt
Fr, 23.02. 4:00 11.1° C bewölkt
Ortszeit Relative Feuchte Sichtweite
Fr, 23.02. 7:00 63% >70 km
Fr, 23.02. 1:00 75% >70 km
Do, 22.02. 19:00 88% 28 km
Do, 22.02. 13:00 81% 60 km
Do, 22.02. 7:00 90% 25 km
Do, 22.02. 1:00 67% 50 km
Mi, 21.02. 19:00 86% 40 km
Mi, 21.02. 13:00 68% 30 km
Ortszeit Relative Feuchte Sichtweite
Fr, 23.02. 7:00 63% >70 km
Fr, 23.02. 6:30 60% 65 km
Fr, 23.02. 6:20 60% -
Fr, 23.02. 6:10 61% -
Fr, 23.02. 6:00 58% >70 km
Fr, 23.02. 5:50 58% -
Fr, 23.02. 5:30 57% 65 km
Fr, 23.02. 5:00 61% >70 km
Fr, 23.02. 4:30 65% 65 km
Fr, 23.02. 4:00 68% >70 km
Ortszeit Niederschlagsmenge Niederschlagsart
Fr, 23.02. 7:00 2 l/m2 in 12 Std. Sprühregen
Fr, 23.02. 1:00 2 l/m2 in 6 Std. Regen
Do, 22.02. 19:00 0.1 l/m2 in 3 Std. Regen
Do, 22.02. 13:00 0.0 l/m2 in 6 Std. Schnee
Do, 22.02. 7:00 0.7 l/m2 in 12 Std. Regen
Do, 22.02. 1:00 0.0 l/m2 in 6 Std. -
Mi, 21.02. 19:00 0.1 l/m2 in 12 Std. -
Mi, 21.02. 13:00 0.1 l/m2 in 6 Std. Regen
Ortszeit Niederschlagsmenge Niederschlagsart
Fr, 23.02. 7:00 keine Meldung -
Fr, 23.02. 6:30 0.0 l/m2 in 30 Min -
Fr, 23.02. 6:20 keine Meldung -
Fr, 23.02. 6:10 keine Meldung -
Fr, 23.02. 6:00 0.0 l/m2 in 1 Std. -
Fr, 23.02. 5:50 keine Meldung -
Fr, 23.02. 5:30 0.0 l/m2 in 30 Min -
Fr, 23.02. 5:00 0.0 l/m2 in 1 Std. -
Fr, 23.02. 4:30 0.0 l/m2 in 30 Min -
Fr, 23.02. 4:00 <0.05 l/m2 in 1 Std. Sprühregen
Ortszeit Stärke Spitze Richtung
km/h Bft. km/h Grad Sektor
Fr, 23.02. 7:00 18 3 65 240° SW
Fr, 23.02. 1:00 22 4 43 200° S
Do, 22.02. 19:00 13 3 30 160° S
Do, 22.02. 13:00 13 3 26 220° SW
Do, 22.02. 7:00 13 3 44 180° S
Do, 22.02. 1:00 11 2 22 170° S
Mi, 21.02. 19:00 9 2 37 180° S
Mi, 21.02. 13:00 18 3 43 230° SW
Ortszeit Stärke Spitze Richtung
km/h Bft. km/h Grad Sektor
Fr, 23.02. 7:00 18 3 65 240° SW
Fr, 23.02. 6:30 26 4 52 230° SW
Fr, 23.02. 6:20 26 4 - 230° SW
Fr, 23.02. 6:10 24 4 - 230° SW
Fr, 23.02. 6:00 30 5 65 240° SW
Fr, 23.02. 5:50 30 5 - 240° SW
Fr, 23.02. 5:30 40 6 65 250° W
Fr, 23.02. 5:00 28 4 46 260° W
Fr, 23.02. 4:30 25 4 43 260° W
Fr, 23.02. 4:00 25 4 58 260° W
Ortszeit Untergrenze Bedeckung Gattung
total tief tief mittel hoch
Fr, 23.02. 7:00 5100 m 8/8 8/8 - - -
Fr, 23.02. 1:00 3300 m 8/8 8/8 - - -
Do, 22.02. 19:00 930 m 8/8 8/8 - - -
Do, 22.02. 13:00 780 m 8/8 8/8 - - -
Do, 22.02. 7:00 870 m 8/8 8/8 - - -
Do, 22.02. 1:00 1800 m 8/8 8/8 - - -
Mi, 21.02. 19:00 5400 m 8/8 8/8 - - -
Mi, 21.02. 13:00 720 m 8/8 8/8 - - -
Ortszeit Bedeckungsgrad in Achtel und Wolkenuntergrenze
Fr, 23.02. 7:00 8(5100m) 8(5700m)
Fr, 23.02. 6:30 6(4500m) 8(5100m) 8(6000m)
Fr, 23.02. 6:20 6(4500m) 8(5100m) 8(6000m)
Fr, 23.02. 6:10 8
Fr, 23.02. 6:00 1(1800m) 7(4500m) 8(5100m)
Fr, 23.02. 5:50 1(1800m) 7(4500m) 8(5100m)
Fr, 23.02. 5:30 1(1230m) 8(4800m) 8(6900m)
Fr, 23.02. 5:00 2(1290m) 5(1500m) 8(4800m)
Fr, 23.02. 4:30 5(1080m) 7(1380m) 8(4800m)
Fr, 23.02. 4:00 3(1140m) 6(1500m) 8(4500m)
Ortszeit Luftdruck NN (hPa) Tendenz (hPa in 3 Std.)
Fr, 23.02. 7:00 995 + 4,1
Fr, 23.02. 1:00 988 - 0,9
Do, 22.02. 19:00 990 - 2,2
Do, 22.02. 13:00 996 - 2,4
Do, 22.02. 7:00 1000 - 2,6
Do, 22.02. 1:00 1007 - 2,4
Mi, 21.02. 19:00 1013 - 2,8
Mi, 21.02. 13:00 1018 - 1,3
Ortszeit Luftdruck NN (hPa) Tendenz (hPa in 3 Std.)
Fr, 23.02. 7:00 995 + 4,1
Fr, 23.02. 6:30 994 + 4,6
Fr, 23.02. 6:20 994 keine Meldung
Fr, 23.02. 6:10 994 keine Meldung
Fr, 23.02. 6:00 994 + 4,7
Fr, 23.02. 5:50 994 keine Meldung
Fr, 23.02. 5:30 993 + 5,0
Fr, 23.02. 5:00 992 + 4,2
Fr, 23.02. 4:30 991 + 3,4
Fr, 23.02. 4:00 991 + 3,0
Ortszeit Schneehöhe (cm)
Fr, 23.02. 7:00 0
Fr, 23.02. 1:00 0
Do, 22.02. 19:00 0
Do, 22.02. 13:00 0
Do, 22.02. 7:00 0
Do, 22.02. 1:00 0
Mi, 21.02. 19:00 0
Mi, 21.02. 13:00 0
Ortszeit Schneehöhe (cm)
Fr, 23.02. 7:00 0
Fr, 23.02. 6:30 0
Fr, 23.02. 6:20 0
Fr, 23.02. 6:10 -
Fr, 23.02. 6:00 0
Fr, 23.02. 5:50 0
Fr, 23.02. 5:30 0
Fr, 23.02. 5:00 0
Fr, 23.02. 4:30 0
Fr, 23.02. 4:00 0
Link zu dieser Seite / Seite empfehlen

Das Wetter in ...